Ternholm — OWIM2 — position and weather

sailwx.info

Track history (hours):
 
Tides and Currents Weather Stations Pressure Air Temp Water Temp Dewpoint Dewpoint Depression Visibility Wind Speed Wind Dir Waves Ship Positions

Ternholm

Last reported at 2018-Apr-21 15:30 UTC. Time now 2018-Apr-21 15:41 UTC.
Position N 56°03' E 012°39'.

Length 141 m; draft 6.5 m.

Type: Tanker. MMSI: 219076000.

Date/timePositionNaut miles runAvg speedWind from/ knotsBaromVisibWave heightAir tempDewpointWater temp
2018-Apr-21 15:30N 56°03' E 012°39'5 9.4
2018-Apr-21 15:00N 55°59' E 012°42'510.6
2018-Apr-21 14:30N 55°54' E 012°45'510.4
2018-Apr-21 14:00N 55°49' E 012°47'611.3
2018-Apr-21 13:30N 55°44' E 012°51'510.8
2018-Apr-21 13:00N 55°39' E 012°57'5 9.5
2018-Apr-21 12:30N 55°36' E 012°52'5 9.1
2018-Apr-21 12:00N 55°32' E 012°46'5 9.9
2018-Apr-21 11:30N 55°28' E 012°43'611.7
2018-Apr-21 11:00N 55°22' E 012°41'5 9.4
2018-Apr-21 10:30N 55°18' E 012°44'611.5
2018-Apr-21 10:00N 55°16' E 012°53'611.6
2018-Apr-21 09:30N 55°15' E 013°03'611.6
2018-Apr-21 09:00N 55°15' E 013°14'1211.5
2018-Apr-21 07:56N 55°15' E 013°35'511.6
2018-Apr-21 07:30N 55°14' E 013°44'611.5
2018-Apr-21 06:59N 55°14' E 013°55'711.5
2018-Apr-21 06:21N 55°14' E 014°07'411.7
2018-Apr-21 06:00N 55°14' E 014°14'611.0
2018-Apr-21 05:30N 55°17' E 014°21'711.7
2018-Apr-21 04:54N 55°23' E 014°29'511.7
2018-Apr-21 04:28N 55°27' E 014°34'511.6
2018-Apr-21 04:00N 55°30' E 014°42'611.7
2018-Apr-21 03:30N 55°33' E 014°51'611.6
2018-Apr-21 02:58N 55°36' E 015°01'511.4
2018-Apr-21 02:30N 55°38' E 015°09'611.3
2018-Apr-21 02:00N 55°41' E 015°17'611.5
2018-Apr-21 01:30N 55°44' E 015°26'611.5
2018-Apr-21 01:00N 55°47' E 015°35'611.5
2018-Apr-21 00:30N 55°50' E 015°44'611.3
2018-Apr-21 00:00N 55°52' E 015°53'611.5
2018-Apr-20 23:30N 55°55' E 016°02'611.6
2018-Apr-20 23:00N 55°58' E 016°11'611.6
2018-Apr-20 22:30N 56°01' E 016°20'611.6
2018-Apr-20 22:00N 56°04' E 016°29'611.3
2018-Apr-20 21:30N 56°07' E 016°37'611.1
2018-Apr-20 21:00N 56°11' E 016°44'612.2
2018-Apr-20 20:30N 56°17' E 016°48'611.7
2018-Apr-20 20:00N 56°22' E 016°53'611.7
2018-Apr-20 19:28N 56°28' E 016°57'511.7
2018-Apr-20 19:00N 56°33' E 017°01'15811.4
2018-Apr-20 05:08N 58°53' E 019°15'211.6
2018-Apr-20 05:00N 58°55' E 019°16'611.5
2018-Apr-20 04:30N 58°59' E 019°22'711.2
2018-Apr-20 03:52N 59°06' E 019°28'511.6
2018-Apr-20 03:28N 59°10' E 019°33'611.7
2018-Apr-20 02:59N 59°15' E 019°38'611.5
2018-Apr-20 02:27N 59°20' E 019°44'611.5
2018-Apr-20 01:54N 59°26' E 019°50'511.6
2018-Apr-20 01:30N 59°30' E 019°55'710.8
2018-Apr-20 00:52N 59°37' E 019°56'411.6
2018-Apr-20 00:30N 59°40' E 019°52'611.7
2018-Apr-20 00:00N 59°45' E 019°44'611.7
2018-Apr-19 23:30N 59°49' E 019°37'611.8
2018-Apr-19 23:00N 59°53' E 019°29'611.6
2018-Apr-19 22:30N 59°58' E 019°21'611.7
2018-Apr-19 22:00N 60°02' E 019°14'611.7
2018-Apr-19 21:30N 60°07' E 019°07'611.4
2018-Apr-19 21:00N 60°11' E 018°60'611.4
2018-Apr-19 20:30N 60°17' E 018°60'611.5
2018-Apr-19 20:00N 60°23' E 018°60'7 0.1
2018-Apr-17 18:22N 60°29' E 019°04'5 8.3
2018-Apr-17 17:49N 60°25' E 019°02'3 8.5
2018-Apr-17 17:30N 60°22' E 019°02'4 8.5
2018-Apr-17 17:00N 60°18' E 019°01'4 8.7
2018-Apr-17 16:30N 60°14' E 019°03'4 7.9
2018-Apr-17 16:00N 60°10' E 019°07'4 8.1
2018-Apr-17 15:30N 60°07' E 019°12'4 8.3
2018-Apr-17 15:00N 60°04' E 019°17'4 8.4
2018-Apr-17 14:30N 60°01' E 019°23'4 8.4
2018-Apr-17 14:00N 59°58' E 019°28'4 8.4
2018-Apr-17 13:30N 59°54' E 019°34'4 8.6
2018-Apr-17 13:00N 59°51' E 019°39'4 8.6
2018-Apr-17 12:30N 59°48' E 019°45'5 8.5
2018-Apr-17 11:56N 59°44' E 019°51'4 8.5
2018-Apr-17 11:29N 59°41' E 019°56'14 8.3
2018-Apr-17 09:49N 59°29' E 020°09'1910.1
2018-Apr-17 07:54N 59°13' E 019°50'410.9
2018-Apr-17 07:30N 59°09' E 019°45'511.0
2018-Apr-17 07:00N 59°05' E 019°39'711.0
2018-Apr-17 06:23N 58°59' E 019°31'13111.0
2018-Apr-16 18:24N 57°05' E 017°30'411.0
2018-Apr-16 18:01N 57°01' E 017°27'611.0
2018-Apr-16 17:30N 56°55' E 017°24'2711.0
2018-Apr-16 15:01N 56°30' E 017°07'011.5
2018-Apr-16 15:00N 56°30' E 017°07'611.0
2018-Apr-16 14:30N 56°25' E 017°03'511.0
2018-Apr-16 14:00N 56°19' E 016°59'611.0
2018-Apr-16 13:30N 56°14' E 016°56'611.0
2018-Apr-16 12:59N 56°09' E 016°53'510.9
2018-Apr-16 12:30N 56°05' E 016°47'611.0
2018-Apr-16 11:57N 56°01' E 016°38'511.0
2018-Apr-16 11:30N 55°58' E 016°31'510.9
2018-Apr-16 11:00N 55°55' E 016°23'611.1
2018-Apr-16 10:30N 55°52' E 016°14'611.0
2018-Apr-16 10:00N 55°50' E 016°06'611.1
2018-Apr-16 09:30N 55°47' E 015°57'611.2
2018-Apr-16 09:00N 55°44' E 015°49'611.3
2018-Apr-16 08:30N 55°41' E 015°40'611.4
2018-Apr-16 08:00N 55°39' E 015°31'611.4
2018-Apr-16 07:30N 55°36' E 015°22'611.4
2018-Apr-16 07:00N 55°33' E 015°13'611.2
2018-Apr-16 06:30N 55°31' E 015°04'611.2
2018-Apr-16 06:00N 55°28' E 014°56'611.2
2018-Apr-16 05:29N 55°26' E 014°46'511.0
2018-Apr-16 05:00N 55°23' E 014°38'611.2
2018-Apr-16 04:29N 55°18' E 014°32'510.9
2018-Apr-16 04:00N 55°14' E 014°26'611.0
2018-Apr-16 03:30N 55°10' E 014°20'511.0
2018-Apr-16 03:00N 55°06' E 014°14'711.1
2018-Apr-16 02:24N 55°01' E 014°07'511.4
2018-Apr-16 01:58N 54°59' E 013°59'711.6
2018-Apr-16 01:24N 54°57' E 013°48'1811.7
2018-Apr-15 23:51N 54°52' E 013°18'2111.6
2018-Apr-15 22:00N 54°45' E 012°42'611.5
2018-Apr-15 21:30N 54°42' E 012°34'611.5
2018-Apr-15 20:57N 54°38' E 012°25'1611.1
2018-Apr-15 19:29N 54°25' E 012°09'511.2
2018-Apr-15 19:00N 54°25' E 012°00'1210.9
2018-Apr-15 17:56N 54°26' E 011°40'511.0
2018-Apr-15 17:30N 54°28' E 011°33'611.5
2018-Apr-15 17:00N 54°31' E 011°24'611.3
2018-Apr-15 16:30N 54°33' E 011°15'511.0
2018-Apr-15 16:00N 54°36' E 011°07'611.3
2018-Apr-15 15:30N 54°39' E 010°59'611.1
2018-Apr-15 15:00N 54°42' E 010°51'611.6
2018-Apr-15 14:30N 54°48' E 010°51'611.7
2018-Apr-15 14:00N 54°54' E 010°53'611.5
2018-Apr-15 13:30N 54°59' E 010°59'611.3
2018-Apr-15 13:00N 55°04' E 011°02'611.4
2018-Apr-15 12:30N 55°10' E 011°03'510.4
2018-Apr-15 12:00N 55°15' E 011°05'9410.4
2018-Apr-15 03:01N 56°45' E 011°51'011.4
2018-Apr-15 03:00N 56°45' E 011°51'611.6
2018-Apr-15 02:27N 56°51' E 011°48'511.7
2018-Apr-15 02:00N 56°56' E 011°44'611.5
2018-Apr-15 01:30N 57°01' E 011°40'611.1
2018-Apr-15 01:00N 57°07' E 011°37'510.7
2018-Apr-15 00:30N 57°12' E 011°34'510.7
2018-Apr-15 00:00N 57°17' E 011°31'611.2
2018-Apr-14 23:30N 57°22' E 011°33'611.2
2018-Apr-14 23:00N 57°28' E 011°34'611.4
2018-Apr-14 22:30N 57°33' E 011°36'611.2
2018-Apr-14 22:00N 57°38' E 011°42'611.4
2018-Apr-14 21:30N 57°41' E 011°51'1 1.7
2018-Apr-14 21:00N 57°41' E 011°52'0 0.0
2018-Apr-14 20:30N 57°41' E 011°52'0 0.0
2018-Apr-14 20:00N 57°41' E 011°52'0 0.0
2018-Apr-14 19:27N 57°41' E 011°52'0 0.0
2018-Apr-14 19:00N 57°41' E 011°52'0 0.0
2018-Apr-14 18:30N 57°41' E 011°52'0 0.0
2018-Apr-14 18:00N 57°41' E 011°52'0 0.0
2018-Apr-14 17:30N 57°41' E 011°52'0 0.0
2018-Apr-14 17:00N 57°41' E 011°52'0 0.0
2018-Apr-14 16:30N 57°41' E 011°52'0 0.0
2018-Apr-14 16:00N 57°41' E 011°52'0 0.0
2018-Apr-14 15:30N 57°41' E 011°52'0 0.0
2018-Apr-14 15:00N 57°41' E 011°52'0 0.0
2018-Apr-14 14:30N 57°41' E 011°52'0 0.0
2018-Apr-14 14:00N 57°41' E 011°52'0 0.0
2018-Apr-14 13:30N 57°41' E 011°52'0 0.0
2018-Apr-14 13:00N 57°41' E 011°52'0 0.0
2018-Apr-14 12:30N 57°41' E 011°52'0 0.0
2018-Apr-14 12:00N 57°41' E 011°52'0 0.0
2018-Apr-14 11:30N 57°41' E 011°52'0 0.0
2018-Apr-14 11:00N 57°41' E 011°52'0 0.0
2018-Apr-14 10:30N 57°41' E 011°52'0 0.0
2018-Apr-14 10:00N 57°41' E 011°52'0 0.0
2018-Apr-14 09:30N 57°41' E 011°52'0 0.0
2018-Apr-14 09:00N 57°41' E 011°52'0 0.0
2018-Apr-14 08:30N 57°41' E 011°52'0 0.0
2018-Apr-14 08:00N 57°41' E 011°52'0 0.0
2018-Apr-14 07:30N 57°41' E 011°52'0 0.0
2018-Apr-14 07:00N 57°41' E 011°52'0 0.0
2018-Apr-14 06:30N 57°41' E 011°52'0 0.0
2018-Apr-14 06:00N 57°41' E 011°52'0 0.0
2018-Apr-14 05:30N 57°41' E 011°52'0 0.0
2018-Apr-14 05:00N 57°41' E 011°52'0 0.0
2018-Apr-14 04:30N 57°41' E 011°52'0 0.0
2018-Apr-14 04:00N 57°41' E 011°52'0 0.0
2018-Apr-14 03:30N 57°41' E 011°52'0 0.0
2018-Apr-14 03:00N 57°41' E 011°52'0 0.0
2018-Apr-14 02:30N 57°41' E 011°52'0 0.0
2018-Apr-14 02:00N 57°41' E 011°52'0 0.0
2018-Apr-14 01:30N 57°41' E 011°52'0 0.0
2018-Apr-14 01:00N 57°41' E 011°52'0 0.0
2018-Apr-14 00:30N 57°41' E 011°52'0 0.0
2018-Apr-14 00:00N 57°41' E 011°52'0 0.0
2018-Apr-13 23:30N 57°41' E 011°52'0 0.0
2018-Apr-13 23:00N 57°41' E 011°52'0 0.0
2018-Apr-13 22:30N 57°41' E 011°52'0 0.0
2018-Apr-13 22:00N 57°41' E 011°52'0 0.0
2018-Apr-13 21:30N 57°41' E 011°52'0 0.0
2018-Apr-13 21:00N 57°41' E 011°52'0 0.0
2018-Apr-13 20:30N 57°41' E 011°52'0 0.0
2018-Apr-13 20:00N 57°41' E 011°52'0 0.0
2018-Apr-13 19:30N 57°41' E 011°52'0 0.0
2018-Apr-13 19:00N 57°41' E 011°52'0 0.0
2018-Apr-13 18:27N 57°41' E 011°52'0 0.0
2018-Apr-13 18:00N 57°41' E 011°52'0 0.0
2018-Apr-13 17:30N 57°41' E 011°52'0 0.0
2018-Apr-13 17:00N 57°41' E 011°52'0 0.0
2018-Apr-13 16:30N 57°41' E 011°52'0 0.0
2018-Apr-13 16:00N 57°41' E 011°52'0 0.0
2018-Apr-13 15:30N 57°41' E 011°52'0 0.0
2018-Apr-13 15:00N 57°41' E 011°52'0 0.7
2018-Apr-13 14:30N 57°41' E 011°52'5 9.3
2018-Apr-13 14:00N 57°39' E 011°44'612.6
2018-Apr-13 13:30N 57°34' E 011°37'713.3
2018-Apr-13 13:00N 57°27' E 011°39'713.4
2018-Apr-13 12:30N 57°21' E 011°43'713.3
2018-Apr-13 12:00N 57°16' E 011°50'713.4
2018-Apr-13 11:30N 57°10' E 011°57'5513.1
2018-Apr-13 07:16N 56°17' E 012°24'411.7
2018-Apr-13 06:54N 56°13' E 012°27'511.6
2018-Apr-13 06:30N 56°09' E 012°30'611.8
2018-Apr-13 06:00N 56°04' E 012°38'611.6
2018-Apr-13 05:30N 55°59' E 012°41'611.5
2018-Apr-13 05:00N 55°53' E 012°44'611.5
2018-Apr-13 04:30N 55°48' E 012°43'611.5
2018-Apr-13 04:00N 55°42' E 012°41'611.8
2018-Apr-13 03:30N 55°36' E 012°42'510.0
2018-Apr-13 03:00N 55°31' E 012°43'611.2
2018-Apr-13 02:30N 55°26' E 012°42'611.4
2018-Apr-13 02:00N 55°20' E 012°40'510.4
2018-Apr-13 01:29N 55°17' E 012°47'611.5
2018-Apr-13 01:00N 55°16' E 012°57'611.6
2018-Apr-13 00:29N 55°15' E 013°07'611.7
2018-Apr-13 00:00N 55°15' E 013°17'1511.7
2018-Apr-12 22:46N 55°14' E 013°43'411.7
2018-Apr-12 22:27N 55°14' E 013°49'611.7
2018-Apr-12 21:57N 55°14' E 013°59'811.7
2018-Apr-12 21:18N 55°13' E 014°12'411.0
2018-Apr-12 20:58N 55°15' E 014°18'611.7
2018-Apr-12 20:30N 55°19' E 014°24'611.7
2018-Apr-12 19:59N 55°24' E 014°31'711.6
2018-Apr-12 19:26N 55°29' E 014°39'410.7
2018-Apr-12 19:00N 55°30' E 014°46'611.6
2018-Apr-12 18:30N 55°33' E 014°55'611.7
2018-Apr-12 18:00N 55°36' E 015°04'611.7
2018-Apr-12 17:30N 55°39' E 015°13'611.6
2018-Apr-12 17:00N 55°42' E 015°22'611.7
2018-Apr-12 16:30N 55°45' E 015°31'611.6
2018-Apr-12 16:00N 55°48' E 015°40'611.7
2018-Apr-12 15:30N 55°51' E 015°48'611.7
2018-Apr-12 15:00N 55°54' E 015°57'510.9
2018-Apr-12 14:30N 55°57' E 016°06'5 9.4
2018-Apr-12 14:00N 55°59' E 016°13'5 9.4
2018-Apr-12 13:30N 56°01' E 016°20'5 9.6
2018-Apr-12 13:00N 56°04' E 016°28'611.4
2018-Apr-12 12:30N 56°07' E 016°36'611.6
2018-Apr-12 12:00N 56°11' E 016°44'611.7
2018-Apr-12 11:30N 56°16' E 016°49'611.7
2018-Apr-12 11:00N 56°21' E 016°53'611.7
2018-Apr-12 10:29N 56°27' E 016°57'611.7
2018-Apr-12 09:59N 56°32' E 017°01'3311.7
2018-Apr-12 07:08N 57°03' E 017°22'7511.6
2018-Apr-12 00:41N 58°17' E 017°49'211.6
2018-Apr-12 00:30N 58°19' E 017°49'611.7
2018-Apr-12 00:00N 58°25' E 017°50'711.7
2018-Apr-11 23:27N 58°31' E 017°51'711.7
2018-Apr-11 22:49N 58°39' E 017°52'411.6
2018-Apr-11 22:29N 58°43' E 017°52'511.3
2018-Apr-11 22:00N 58°47' E 017°46'813.8
2018-Apr-11 21:26N 58°55' E 017°43'612.5
2018-Apr-11 20:55N 59°01' E 017°42'  
Track history (hours):
 
Tides and Currents Weather Stations Pressure Air Temp Water Temp Dewpoint Dewpoint Depression Visibility Wind Speed Wind Dir Waves Ship Positions

Ternholm

Last reported at 2018-Apr-21 15:30 UTC. Time now 2018-Apr-21 15:41 UTC.
Position N 56°03' E 012°39'.

Length 141 m; draft 6.5 m.

Type: Tanker. MMSI: 219076000.

Date/timePositionNaut miles runAvg speedWind from/ knotsBaromVisibWave heightAir tempDewpointWater temp
2018-Apr-21 15:30N 56°03' E 012°39'5 9.4
2018-Apr-21 15:00N 55°59' E 012°42'510.6
2018-Apr-21 14:30N 55°54' E 012°45'510.4
2018-Apr-21 14:00N 55°49' E 012°47'611.3
2018-Apr-21 13:30N 55°44' E 012°51'510.8
2018-Apr-21 13:00N 55°39' E 012°57'5 9.5
2018-Apr-21 12:30N 55°36' E 012°52'5 9.1
2018-Apr-21 12:00N 55°32' E 012°46'5 9.9
2018-Apr-21 11:30N 55°28' E 012°43'611.7
2018-Apr-21 11:00N 55°22' E 012°41'5 9.4
2018-Apr-21 10:30N 55°18' E 012°44'611.5
2018-Apr-21 10:00N 55°16' E 012°53'611.6
2018-Apr-21 09:30N 55°15' E 013°03'611.6
2018-Apr-21 09:00N 55°15' E 013°14'1211.5
2018-Apr-21 07:56N 55°15' E 013°35'511.6
2018-Apr-21 07:30N 55°14' E 013°44'611.5
2018-Apr-21 06:59N 55°14' E 013°55'711.5
2018-Apr-21 06:21N 55°14' E 014°07'411.7
2018-Apr-21 06:00N 55°14' E 014°14'611.0
2018-Apr-21 05:30N 55°17' E 014°21'711.7
2018-Apr-21 04:54N 55°23' E 014°29'511.7
2018-Apr-21 04:28N 55°27' E 014°34'511.6
2018-Apr-21 04:00N 55°30' E 014°42'611.7
2018-Apr-21 03:30N 55°33' E 014°51'611.6
2018-Apr-21 02:58N 55°36' E 015°01'511.4
2018-Apr-21 02:30N 55°38' E 015°09'611.3
2018-Apr-21 02:00N 55°41' E 015°17'611.5
2018-Apr-21 01:30N 55°44' E 015°26'611.5
2018-Apr-21 01:00N 55°47' E 015°35'611.5
2018-Apr-21 00:30N 55°50' E 015°44'611.3
2018-Apr-21 00:00N 55°52' E 015°53'611.5
2018-Apr-20 23:30N 55°55' E 016°02'611.6
2018-Apr-20 23:00N 55°58' E 016°11'611.6
2018-Apr-20 22:30N 56°01' E 016°20'611.6
2018-Apr-20 22:00N 56°04' E 016°29'611.3
2018-Apr-20 21:30N 56°07' E 016°37'611.1
2018-Apr-20 21:00N 56°11' E 016°44'612.2
2018-Apr-20 20:30N 56°17' E 016°48'611.7
2018-Apr-20 20:00N 56°22' E 016°53'611.7
2018-Apr-20 19:28N 56°28' E 016°57'511.7
2018-Apr-20 19:00N 56°33' E 017°01'15811.4
2018-Apr-20 05:08N 58°53' E 019°15'211.6
2018-Apr-20 05:00N 58°55' E 019°16'611.5
2018-Apr-20 04:30N 58°59' E 019°22'711.2
2018-Apr-20 03:52N 59°06' E 019°28'511.6
2018-Apr-20 03:28N 59°10' E 019°33'611.7
2018-Apr-20 02:59N 59°15' E 019°38'611.5
2018-Apr-20 02:27N 59°20' E 019°44'611.5
2018-Apr-20 01:54N 59°26' E 019°50'511.6
2018-Apr-20 01:30N 59°30' E 019°55'710.8
2018-Apr-20 00:52N 59°37' E 019°56'411.6
2018-Apr-20 00:30N 59°40' E 019°52'611.7
2018-Apr-20 00:00N 59°45' E 019°44'611.7
2018-Apr-19 23:30N 59°49' E 019°37'611.8
2018-Apr-19 23:00N 59°53' E 019°29'611.6
2018-Apr-19 22:30N 59°58' E 019°21'611.7
2018-Apr-19 22:00N 60°02' E 019°14'611.7
2018-Apr-19 21:30N 60°07' E 019°07'611.4
2018-Apr-19 21:00N 60°11' E 018°60'611.4
2018-Apr-19 20:30N 60°17' E 018°60'611.5
2018-Apr-19 20:00N 60°23' E 018°60'7 0.1
2018-Apr-17 18:22N 60°29' E 019°04'5 8.3
2018-Apr-17 17:49N 60°25' E 019°02'3 8.5
2018-Apr-17 17:30N 60°22' E 019°02'4 8.5
2018-Apr-17 17:00N 60°18' E 019°01'4 8.7
2018-Apr-17 16:30N 60°14' E 019°03'4 7.9
2018-Apr-17 16:00N 60°10' E 019°07'4 8.1
2018-Apr-17 15:30N 60°07' E 019°12'4 8.3
2018-Apr-17 15:00N 60°04' E 019°17'4 8.4
2018-Apr-17 14:30N 60°01' E 019°23'4 8.4
2018-Apr-17 14:00N 59°58' E 019°28'4 8.4
2018-Apr-17 13:30N 59°54' E 019°34'4 8.6
2018-Apr-17 13:00N 59°51' E 019°39'4 8.6
2018-Apr-17 12:30N 59°48' E 019°45'5 8.5
2018-Apr-17 11:56N 59°44' E 019°51'4 8.5
2018-Apr-17 11:29N 59°41' E 019°56'14 8.3
2018-Apr-17 09:49N 59°29' E 020°09'1910.1
2018-Apr-17 07:54N 59°13' E 019°50'410.9
2018-Apr-17 07:30N 59°09' E 019°45'511.0
2018-Apr-17 07:00N 59°05' E 019°39'711.0
2018-Apr-17 06:23N 58°59' E 019°31'13111.0
2018-Apr-16 18:24N 57°05' E 017°30'411.0
2018-Apr-16 18:01N 57°01' E 017°27'611.0
2018-Apr-16 17:30N 56°55' E 017°24'2711.0
2018-Apr-16 15:01N 56°30' E 017°07'011.5
2018-Apr-16 15:00N 56°30' E 017°07'611.0
2018-Apr-16 14:30N 56°25' E 017°03'511.0
2018-Apr-16 14:00N 56°19' E 016°59'611.0
2018-Apr-16 13:30N 56°14' E 016°56'611.0
2018-Apr-16 12:59N 56°09' E 016°53'510.9
2018-Apr-16 12:30N 56°05' E 016°47'611.0
2018-Apr-16 11:57N 56°01' E 016°38'511.0
2018-Apr-16 11:30N 55°58' E 016°31'510.9
2018-Apr-16 11:00N 55°55' E 016°23'611.1
2018-Apr-16 10:30N 55°52' E 016°14'611.0
2018-Apr-16 10:00N 55°50' E 016°06'611.1
2018-Apr-16 09:30N 55°47' E 015°57'611.2
2018-Apr-16 09:00N 55°44' E 015°49'611.3
2018-Apr-16 08:30N 55°41' E 015°40'611.4
2018-Apr-16 08:00N 55°39' E 015°31'611.4
2018-Apr-16 07:30N 55°36' E 015°22'611.4
2018-Apr-16 07:00N 55°33' E 015°13'611.2
2018-Apr-16 06:30N 55°31' E 015°04'611.2
2018-Apr-16 06:00N 55°28' E 014°56'611.2
2018-Apr-16 05:29N 55°26' E 014°46'511.0
2018-Apr-16 05:00N 55°23' E 014°38'611.2
2018-Apr-16 04:29N 55°18' E 014°32'510.9
2018-Apr-16 04:00N 55°14' E 014°26'611.0
2018-Apr-16 03:30N 55°10' E 014°20'511.0
2018-Apr-16 03:00N 55°06' E 014°14'711.1
2018-Apr-16 02:24N 55°01' E 014°07'511.4
2018-Apr-16 01:58N 54°59' E 013°59'711.6
2018-Apr-16 01:24N 54°57' E 013°48'1811.7
2018-Apr-15 23:51N 54°52' E 013°18'2111.6
2018-Apr-15 22:00N 54°45' E 012°42'611.5
2018-Apr-15 21:30N 54°42' E 012°34'611.5
2018-Apr-15 20:57N 54°38' E 012°25'1611.1
2018-Apr-15 19:29N 54°25' E 012°09'511.2
2018-Apr-15 19:00N 54°25' E 012°00'1210.9
2018-Apr-15 17:56N 54°26' E 011°40'511.0
2018-Apr-15 17:30N 54°28' E 011°33'611.5
2018-Apr-15 17:00N 54°31' E 011°24'611.3
2018-Apr-15 16:30N 54°33' E 011°15'511.0
2018-Apr-15 16:00N 54°36' E 011°07'611.3
2018-Apr-15 15:30N 54°39' E 010°59'611.1
2018-Apr-15 15:00N 54°42' E 010°51'611.6
2018-Apr-15 14:30N 54°48' E 010°51'611.7
2018-Apr-15 14:00N 54°54' E 010°53'611.5
2018-Apr-15 13:30N 54°59' E 010°59'611.3
2018-Apr-15 13:00N 55°04' E 011°02'611.4
2018-Apr-15 12:30N 55°10' E 011°03'510.4
2018-Apr-15 12:00N 55°15' E 011°05'9410.4
2018-Apr-15 03:01N 56°45' E 011°51'011.4
2018-Apr-15 03:00N 56°45' E 011°51'611.6
2018-Apr-15 02:27N 56°51' E 011°48'511.7
2018-Apr-15 02:00N 56°56' E 011°44'611.5
2018-Apr-15 01:30N 57°01' E 011°40'611.1
2018-Apr-15 01:00N 57°07' E 011°37'510.7
2018-Apr-15 00:30N 57°12' E 011°34'510.7
2018-Apr-15 00:00N 57°17' E 011°31'611.2
2018-Apr-14 23:30N 57°22' E 011°33'611.2
2018-Apr-14 23:00N 57°28' E 011°34'611.4
2018-Apr-14 22:30N 57°33' E 011°36'611.2
2018-Apr-14 22:00N 57°38' E 011°42'611.4
2018-Apr-14 21:30N 57°41' E 011°51'1 1.7
2018-Apr-14 21:00N 57°41' E 011°52'0 0.0
2018-Apr-14 20:30N 57°41' E 011°52'0 0.0
2018-Apr-14 20:00N 57°41' E 011°52'0 0.0
2018-Apr-14 19:27N 57°41' E 011°52'0 0.0
2018-Apr-14 19:00N 57°41' E 011°52'0 0.0
2018-Apr-14 18:30N 57°41' E 011°52'0 0.0
2018-Apr-14 18:00N 57°41' E 011°52'0 0.0
2018-Apr-14 17:30N 57°41' E 011°52'0 0.0
2018-Apr-14 17:00N 57°41' E 011°52'0 0.0
2018-Apr-14 16:30N 57°41' E 011°52'0 0.0
2018-Apr-14 16:00N 57°41' E 011°52'0 0.0
2018-Apr-14 15:30N 57°41' E 011°52'0 0.0
2018-Apr-14 15:00N 57°41' E 011°52'0 0.0
2018-Apr-14 14:30N 57°41' E 011°52'0 0.0
2018-Apr-14 14:00N 57°41' E 011°52'0 0.0
2018-Apr-14 13:30N 57°41' E 011°52'0 0.0
2018-Apr-14 13:00N 57°41' E 011°52'0 0.0
2018-Apr-14 12:30N 57°41' E 011°52'0 0.0
2018-Apr-14 12:00N 57°41' E 011°52'0 0.0
2018-Apr-14 11:30N 57°41' E 011°52'0 0.0
2018-Apr-14 11:00N 57°41' E 011°52'0 0.0
2018-Apr-14 10:30N 57°41' E 011°52'0 0.0
2018-Apr-14 10:00N 57°41' E 011°52'0 0.0
2018-Apr-14 09:30N 57°41' E 011°52'0 0.0
2018-Apr-14 09:00N 57°41' E 011°52'0 0.0
2018-Apr-14 08:30N 57°41' E 011°52'0 0.0
2018-Apr-14 08:00N 57°41' E 011°52'0 0.0
2018-Apr-14 07:30N 57°41' E 011°52'0 0.0
2018-Apr-14 07:00N 57°41' E 011°52'0 0.0
2018-Apr-14 06:30N 57°41' E 011°52'0 0.0
2018-Apr-14 06:00N 57°41' E 011°52'0 0.0
2018-Apr-14 05:30N 57°41' E 011°52'0 0.0
2018-Apr-14 05:00N 57°41' E 011°52'0 0.0
2018-Apr-14 04:30N 57°41' E 011°52'0 0.0
2018-Apr-14 04:00N 57°41' E 011°52'0 0.0
2018-Apr-14 03:30N 57°41' E 011°52'0 0.0
2018-Apr-14 03:00N 57°41' E 011°52'0 0.0
2018-Apr-14 02:30N 57°41' E 011°52'0 0.0
2018-Apr-14 02:00N 57°41' E 011°52'0 0.0
2018-Apr-14 01:30N 57°41' E 011°52'0 0.0
2018-Apr-14 01:00N 57°41' E 011°52'0 0.0
2018-Apr-14 00:30N 57°41' E 011°52'0 0.0
2018-Apr-14 00:00N 57°41' E 011°52'0 0.0
2018-Apr-13 23:30N 57°41' E 011°52'0 0.0
2018-Apr-13 23:00N 57°41' E 011°52'0 0.0
2018-Apr-13 22:30N 57°41' E 011°52'0 0.0
2018-Apr-13 22:00N 57°41' E 011°52'0 0.0
2018-Apr-13 21:30N 57°41' E 011°52'0 0.0
2018-Apr-13 21:00N 57°41' E 011°52'0 0.0
2018-Apr-13 20:30N 57°41' E 011°52'0 0.0
2018-Apr-13 20:00N 57°41' E 011°52'0 0.0
2018-Apr-13 19:30N 57°41' E 011°52'0 0.0
2018-Apr-13 19:00N 57°41' E 011°52'0 0.0
2018-Apr-13 18:27N 57°41' E 011°52'0 0.0
2018-Apr-13 18:00N 57°41' E 011°52'0 0.0
2018-Apr-13 17:30N 57°41' E 011°52'0 0.0
2018-Apr-13 17:00N 57°41' E 011°52'0 0.0
2018-Apr-13 16:30N 57°41' E 011°52'0 0.0
2018-Apr-13 16:00N 57°41' E 011°52'0 0.0
2018-Apr-13 15:30N 57°41' E 011°52'0 0.0
2018-Apr-13 15:00N 57°41' E 011°52'0 0.7
2018-Apr-13 14:30N 57°41' E 011°52'5 9.3
2018-Apr-13 14:00N 57°39' E 011°44'612.6
2018-Apr-13 13:30N 57°34' E 011°37'713.3
2018-Apr-13 13:00N 57°27' E 011°39'713.4
2018-Apr-13 12:30N 57°21' E 011°43'713.3
2018-Apr-13 12:00N 57°16' E 011°50'713.4
2018-Apr-13 11:30N 57°10' E 011°57'5513.1
2018-Apr-13 07:16N 56°17' E 012°24'411.7
2018-Apr-13 06:54N 56°13' E 012°27'511.6
2018-Apr-13 06:30N 56°09' E 012°30'611.8
2018-Apr-13 06:00N 56°04' E 012°38'611.6
2018-Apr-13 05:30N 55°59' E 012°41'611.5
2018-Apr-13 05:00N 55°53' E 012°44'611.5
2018-Apr-13 04:30N 55°48' E 012°43'611.5
2018-Apr-13 04:00N 55°42' E 012°41'611.8
2018-Apr-13 03:30N 55°36' E 012°42'510.0
2018-Apr-13 03:00N 55°31' E 012°43'611.2
2018-Apr-13 02:30N 55°26' E 012°42'611.4
2018-Apr-13 02:00N 55°20' E 012°40'510.4
2018-Apr-13 01:29N 55°17' E 012°47'611.5
2018-Apr-13 01:00N 55°16' E 012°57'611.6
2018-Apr-13 00:29N 55°15' E 013°07'611.7
2018-Apr-13 00:00N 55°15' E 013°17'1511.7
2018-Apr-12 22:46N 55°14' E 013°43'411.7
2018-Apr-12 22:27N 55°14' E 013°49'611.7
2018-Apr-12 21:57N 55°14' E 013°59'811.7
2018-Apr-12 21:18N 55°13' E 014°12'411.0
2018-Apr-12 20:58N 55°15' E 014°18'611.7
2018-Apr-12 20:30N 55°19' E 014°24'611.7
2018-Apr-12 19:59N 55°24' E 014°31'711.6
2018-Apr-12 19:26N 55°29' E 014°39'410.7
2018-Apr-12 19:00N 55°30' E 014°46'611.6
2018-Apr-12 18:30N 55°33' E 014°55'611.7
2018-Apr-12 18:00N 55°36' E 015°04'611.7
2018-Apr-12 17:30N 55°39' E 015°13'611.6
2018-Apr-12 17:00N 55°42' E 015°22'611.7
2018-Apr-12 16:30N 55°45' E 015°31'611.6
2018-Apr-12 16:00N 55°48' E 015°40'611.7
2018-Apr-12 15:30N 55°51' E 015°48'611.7
2018-Apr-12 15:00N 55°54' E 015°57'510.9
2018-Apr-12 14:30N 55°57' E 016°06'5 9.4
2018-Apr-12 14:00N 55°59' E 016°13'5 9.4
2018-Apr-12 13:30N 56°01' E 016°20'5 9.6
2018-Apr-12 13:00N 56°04' E 016°28'611.4
2018-Apr-12 12:30N 56°07' E 016°36'611.6
2018-Apr-12 12:00N 56°11' E 016°44'611.7
2018-Apr-12 11:30N 56°16' E 016°49'611.7
2018-Apr-12 11:00N 56°21' E 016°53'611.7
2018-Apr-12 10:29N 56°27' E 016°57'611.7
2018-Apr-12 09:59N 56°32' E 017°01'3311.7
2018-Apr-12 07:08N 57°03' E 017°22'7511.6
2018-Apr-12 00:41N 58°17' E 017°49'211.6
2018-Apr-12 00:30N 58°19' E 017°49'611.7
2018-Apr-12 00:00N 58°25' E 017°50'711.7
2018-Apr-11 23:27N 58°31' E 017°51'711.7
2018-Apr-11 22:49N 58°39' E 017°52'411.6
2018-Apr-11 22:29N 58°43' E 017°52'511.3
2018-Apr-11 22:00N 58°47' E 017°46'813.8
2018-Apr-11 21:26N 58°55' E 017°43'612.5
2018-Apr-11 20:55N 59°01' E 017°42'  

Dump ship's entire track history